Time;durP1;ratioP1;P1;durP2;ratioP2;P2;SDS_P1;SDS_P2;PMS_P1;PMS_P2;Temp;Humidity;BMP_temperature;BMP_pressure;BME280_temperature;BME280_humidity;BME280_pressure;Samples;Min_cycle;Max_cycle;Signal;HPM_P1;HPM_P2
2022/06/24 00:00:09;;;;;;;4.50;4.10;;;27.40;59.40;;;;;;5042498;28;20184;-93
2022/06/24 00:03:29;;;;;;;7.07;4.53;;;27.40;59.40;;;;;;5038801;28;20184;-93
2022/06/24 00:05:56;;;;;;;6.50;4.13;;;27.40;60.70;;;;;;5037682;28;20177;-94
2022/06/24 00:09:06;;;;;;;5.00;4.03;;;27.30;59.40;;;;;;5035204;28;20156;-93
2022/06/24 00:11:31;;;;;;;7.33;3.93;;;27.30;59.30;;;;;;5034147;28;20314;-93
2022/06/24 00:14:10;;;;;;;4.07;3.57;;;27.30;58.80;;;;;;5031561;28;20177;-93
2022/06/24 00:20:00;;;;;;;6.10;3.67;;;27.20;58.70;;;;;;5048799;28;20246;-93
2022/06/24 00:22:56;;;;;;;4.47;3.67;;;27.30;58.90;;;;;;5030255;28;20176;-94
2022/06/24 00:25:25;;;;;;;4.87;3.77;;;27.30;58.70;;;;;;5031880;28;20181;-94
2022/06/24 00:28:07;;;;;;;7.33;3.70;;;27.30;58.50;;;;;;5036266;28;20292;-93
2022/06/24 00:30:53;;;;;;;4.40;3.30;;;27.20;56.00;;;;;;5033582;28;20200;-93
2022/06/24 00:33:25;;;;;;;7.50;3.73;;;27.00;57.10;;;;;;5019747;28;20184;-94
2022/06/24 00:35:59;;;;;;;5.33;3.60;;;27.00;58.00;;;;;;5038632;28;20196;-94
2022/06/24 00:38:36;;;;;;;4.20;3.80;;;27.00;58.00;;;;;;5023386;28;20230;-93
2022/06/24 00:41:07;;;;;;;4.40;3.70;;;27.00;57.60;;;;;;5017265;28;20210;-92
2022/06/24 00:44:06;;;;;;;4.13;3.73;;;27.00;58.00;;;;;;5022119;28;20177;-92
2022/06/24 00:46:36;;;;;;;4.73;3.80;;;27.00;57.80;;;;;;5024942;28;20198;-93
2022/06/24 00:49:04;;;;;;;4.53;3.70;;;26.90;56.20;;;;;;5031958;28;20193;-94
2022/06/24 00:51:37;;;;;;;5.40;3.83;;;26.80;57.20;;;;;;5034230;28;20556;-93
2022/06/24 00:54:13;;;;;;;7.40;3.80;;;26.70;56.40;;;;;;5014010;28;20322;-94
2022/06/24 00:56:41;;;;;;;8.80;4.07;;;26.80;57.30;;;;;;5026450;28;20173;-93
2022/06/24 00:59:08;;;;;;;5.80;4.20;;;26.70;58.20;;;;;;5029170;28;20199;-93
2022/06/24 01:02:16;;;;;;;6.13;4.27;;;26.70;59.90;;;;;;5028582;28;20209;-93
2022/06/24 01:05:10;;;;;;;8.47;4.20;;;26.70;61.30;;;;;;5031063;28;20195;-93
2022/06/24 01:07:49;;;;;;;6.67;3.67;;;26.70;65.30;;;;;;5025413;28;20164;-92
2022/06/24 01:10:15;;;;;;;5.03;3.93;;;26.60;71.20;;;;;;5029759;28;20199;-92
2022/06/24 01:12:43;;;;;;;7.50;4.67;;;26.60;73.20;;;;;;5012426;28;20180;-92
2022/06/24 01:15:18;;;;;;;7.27;3.90;;;26.50;79.10;;;;;;5016798;28;20183;-93
2022/06/24 01:17:50;;;;;;;5.43;3.70;;;26.50;81.60;;;;;;5028666;28;20179;-94
2022/06/24 01:20:18;;;;;;;8.23;4.00;;;26.50;78.40;;;;;;5028102;28;20181;-92
2022/06/24 01:22:48;;;;;;;7.20;3.60;;;26.40;88.20;;;;;;5025267;28;20183;-94
2022/06/24 01:25:42;;;;;;;7.60;4.23;;;26.30;84.30;;;;;;5024647;28;20188;-93
2022/06/24 01:28:08;;;;;;;9.47;4.23;;;26.20;86.70;;;;;;5017963;28;20290;-93
2022/06/24 01:30:44;;;;;;;7.80;3.33;;;26.20;90.90;;;;;;5039186;28;20197;-93
2022/06/24 01:33:10;;;;;;;7.63;3.67;;;26.10;86.20;;;;;;5037878;28;20188;-93
2022/06/24 01:42:32;;;;;;;10.30;3.80;;;26.20;89.30;;;;;;5059633;28;20203;-93
2022/06/24 01:45:11;;;;;;;6.00;3.30;;;26.20;86.70;;;;;;5038594;28;20172;-94
2022/06/24 01:47:36;;;;;;;5.60;3.30;;;26.20;84.30;;;;;;5039672;28;20255;-92
2022/06/24 01:50:22;;;;;;;5.50;3.30;;;26.20;83.50;;;;;;5040804;28;20197;-95
2022/06/24 01:52:48;;;;;;;4.53;3.10;;;26.30;83.00;;;;;;5036554;28;20172;-93
2022/06/24 01:55:14;;;;;;;6.67;3.07;;;26.30;82.20;;;;;;5035810;28;20184;-94
2022/06/24 01:57:41;;;;;;;5.57;3.20;;;26.20;84.20;;;;;;5031893;28;20242;-94
2022/06/24 02:07:14;;;;;;;4.97;2.80;;;26.20;84.50;;;;;;4998722;28;20178;-95
2022/06/24 02:19:21;;;;;;;7.23;2.70;;;26.20;84.30;;;;;;5056075;28;20178;-93
2022/06/24 02:21:57;;;;;;;2.53;2.33;;;26.30;81.30;;;;;;5039600;28;20181;-94
2022/06/24 02:24:37;;;;;;;4.70;3.10;;;26.30;81.70;;;;;;5034318;28;20323;-94
2022/06/24 02:27:03;;;;;;;9.23;3.10;;;26.40;84.20;;;;;;5035864;28;20163;-93
2022/06/24 02:29:28;;;;;;;4.23;2.70;;;26.40;81.00;;;;;;5030154;28;20180;-93
2022/06/24 02:31:54;;;;;;;6.77;3.20;;;26.40;79.20;;;;;;5025215;28;20207;-93
2022/06/24 02:34:21;;;;;;;7.83;3.03;;;26.40;79.80;;;;;;5045420;28;20202;-93
2022/06/24 02:36:48;;;;;;;5.67;2.83;;;26.30;80.00;;;;;;5028268;28;20214;-93
2022/06/24 02:39:13;;;;;;;7.67;3.20;;;26.40;80.30;;;;;;5026313;28;20548;-94
2022/06/24 02:41:40;;;;;;;7.40;3.30;;;26.30;78.10;;;;;;5030782;28;20213;-93
2022/06/24 02:44:05;;;;;;;5.53;3.07;;;26.40;78.50;;;;;;5027461;28;20243;-93
2022/06/24 02:46:31;;;;;;;5.60;2.90;;;26.40;81.30;;;;;;5035338;28;20184;-93
2022/06/24 02:55:47;;;;;;;5.63;3.40;;;26.30;83.70;;;;;;5054906;28;20191;-93
2022/06/24 02:58:13;;;;;;;6.17;3.30;;;26.30;78.80;;;;;;5037938;28;20171;-93
2022/06/24 03:01:17;;;;;;;7.70;3.70;;;26.30;84.10;;;;;;5028780;28;20198;-93
2022/06/24 03:03:59;;;;;;;5.63;3.27;;;26.30;79.90;;;;;;5035552;28;20165;-94
2022/06/24 03:06:24;;;;;;;5.80;3.63;;;26.30;81.50;;;;;;5037275;28;20184;-93
2022/06/24 03:08:50;;;;;;;9.53;4.00;;;26.30;79.50;;;;;;5028001;28;20165;-94
2022/06/24 03:14:19;;;;;;;4.37;3.03;;;26.30;82.40;;;;;;5053495;28;20222;-93
2022/06/24 03:17:07;;;;;;;6.63;3.73;;;26.30;81.90;;;;;;5034441;28;20184;-94
2022/06/24 03:26:18;;;;;;;8.23;4.60;;;26.30;80.50;;;;;;5054224;28;20249;-93
2022/06/24 03:28:43;;;;;;;7.47;4.80;;;26.30;80.00;;;;;;5039817;28;20183;-93
2022/06/24 03:35:04;;;;;;;7.70;4.83;;;26.20;84.10;;;;;;5055682;28;20191;-93
2022/06/24 03:37:42;;;;;;;4.43;4.03;;;26.20;83.50;;;;;;5037844;28;20200;-94
2022/06/24 03:40:13;;;;;;;9.07;5.70;;;26.20;80.70;;;;;;5037531;28;20187;-93
2022/06/24 03:42:39;;;;;;;8.40;5.17;;;26.30;81.70;;;;;;5038438;28;20183;-93
2022/06/24 03:51:55;;;;;;;9.93;5.67;;;26.30;80.20;;;;;;5057450;28;20234;-94
2022/06/24 03:54:20;;;;;;;9.53;5.80;;;26.30;80.20;;;;;;5031662;28;20184;-94
2022/06/24 03:56:46;;;;;;;5.37;4.20;;;26.30;79.00;;;;;;5037266;28;20203;-94
2022/06/24 04:02:46;;;;;;;6.60;5.37;;;26.30;81.00;;;;;;5045957;28;20195;-94
2022/06/24 04:05:18;;;;;;;8.10;5.50;;;26.30;79.00;;;;;;5026894;28;20258;-94
2022/06/24 04:11:14;;;;;;;7.87;5.37;;;26.30;80.50;;;;;;5048924;28;20221;-94
2022/06/24 04:20:24;;;;;;;7.23;4.83;;;26.20;83.40;;;;;;5049743;28;20190;-94
2022/06/24 04:27:09;;;;;;;7.37;4.80;;;26.20;82.30;;;;;;5045151;28;20211;-94
2022/06/24 04:29:35;;;;;;;7.80;5.40;;;26.20;82.60;;;;;;5030680;28;20181;-94
2022/06/24 04:39:13;;;;;;;5.80;4.77;;;26.00;83.80;;;;;;5041414;28;20372;-94
2022/06/24 04:41:49;;;;;;;6.80;6.17;;;26.00;86.40;;;;;;5026270;28;20199;-93
2022/06/24 04:44:15;;;;;;;7.93;6.20;;;26.00;89.20;;;;;;5027215;28;20195;-93
2022/06/24 04:46:41;;;;;;;8.47;6.10;;;25.90;89.30;;;;;;5023602;28;20194;-93
2022/06/24 04:52:55;;;;;;;8.27;7.07;;;25.90;89.70;;;;;;4961048;29;20196;-93
2022/06/24 04:55:21;;;;;;;9.00;7.13;;;25.80;91.40;;;;;;4949117;29;20179;-93
2022/06/24 04:57:47;;;;;;;7.57;6.87;;;25.80;90.30;;;;;;5023277;28;20180;-94
2022/06/24 05:03:34;;;;;;;8.03;7.23;;;25.80;89.10;;;;;;4997953;28;20195;-93
2022/06/24 05:05:59;;;;;;;7.93;7.23;;;25.80;87.80;;;;;;5024226;28;20175;-94
2022/06/24 05:08:25;;;;;;;8.83;7.93;;;25.80;87.80;;;;;;5024295;28;20195;-94
2022/06/24 05:10:51;;;;;;;8.10;7.30;;;25.80;87.90;;;;;;5019347;28;20204;-94
2022/06/24 05:16:40;;;;;;;10.07;7.73;;;25.70;89.30;;;;;;5046214;28;20199;-94
2022/06/24 05:19:53;;;;;;;8.70;7.80;;;25.80;87.80;;;;;;5026289;28;20322;-94
2022/06/24 05:22:19;;;;;;;12.43;9.03;;;25.80;87.80;;;;;;5030736;28;20238;-94
2022/06/24 05:25:06;;;;;;;8.87;7.97;;;25.90;87.80;;;;;;5027102;28;20188;-94
2022/06/24 05:27:55;;;;;;;8.77;7.23;;;25.90;87.80;;;;;;5024799;28;20596;-94
2022/06/24 05:30:33;;;;;;;8.97;7.60;;;25.90;88.30;;;;;;5027098;28;20208;-94
2022/06/24 05:33:21;;;;;;;8.93;7.50;;;25.90;87.60;;;;;;5024454;28;20244;-94
2022/06/24 05:35:47;;;;;;;8.70;7.90;;;25.90;88.50;;;;;;5024597;28;20183;-94
2022/06/24 05:38:13;;;;;;;11.50;9.00;;;25.90;89.70;;;;;;5011366;28;20176;-93
2022/06/24 05:40:38;;;;;;;9.73;8.73;;;25.80;90.80;;;;;;5014080;28;20290;-93
2022/06/24 05:43:04;;;;;;;9.37;7.93;;;25.70;90.50;;;;;;5017244;28;20179;-93
2022/06/24 05:48:52;;;;;;;10.07;8.57;;;25.70;90.50;;;;;;5031337;28;20458;-93
2022/06/24 05:51:18;;;;;;;8.30;7.20;;;25.70;90.40;;;;;;5016489;28;20215;-93
2022/06/24 05:57:06;;;;;;;8.97;7.73;;;25.70;90.90;;;;;;5027043;28;20175;-94
2022/06/24 05:59:37;;;;;;;7.30;6.57;;;25.70;91.30;;;;;;5018549;28;20173;-93
2022/06/24 06:02:04;;;;;;;6.93;5.43;;;25.70;92.10;;;;;;5013961;28;20579;-94
2022/06/24 06:04:58;;;;;;;8.07;5.50;;;25.70;91.50;;;;;;5019316;28;20168;-93
2022/06/24 06:07:24;;;;;;;7.93;5.53;;;25.50;93.20;;;;;;5018262;28;20183;-93
2022/06/24 06:13:52;;;;;;;5.63;4.20;;;25.50;93.10;;;;;;5052882;28;20159;-95
2022/06/24 06:20:27;;;;;;;5.20;3.20;;;25.50;95.20;;;;;;5058694;28;20167;-93
2022/06/24 06:22:53;;;;;;;5.87;2.60;;;25.50;93.40;;;;;;5041536;28;20168;-93
2022/06/24 06:25:18;;;;;;;6.57;3.00;;;25.40;96.70;;;;;;5041730;28;20171;-94
2022/06/24 06:28:18;;;;;;;6.60;2.83;;;25.20;94.80;;;;;;5042096;28;20191;-94
2022/06/24 06:31:04;;;;;;;5.03;2.40;;;25.20;94.40;;;;;;5041587;28;20203;-93
2022/06/24 06:37:01;;;;;;;7.00;2.40;;;25.30;94.20;;;;;;5057838;28;20199;-94
2022/06/24 06:43:05;;;;;;;4.67;2.67;;;25.20;95.00;;;;;;5058127;28;20191;-95
2022/06/24 06:45:33;;;;;;;4.10;2.67;;;25.30;94.40;;;;;;5034456;28;20188;-94
2022/06/24 06:47:59;;;;;;;3.50;1.90;;;25.40;93.80;;;;;;5033427;28;20200;-94
2022/06/24 06:50:24;;;;;;;3.87;2.13;;;25.40;94.20;;;;;;5036318;28;20222;-95
2022/06/24 06:52:50;;;;;;;7.27;2.00;;;25.50;93.30;;;;;;5037842;28;20188;-95
2022/06/24 07:02:03;;;;;;;8.93;1.80;;;25.50;93.50;;;;;;5056780;28;20168;-94
2022/06/24 07:04:29;;;;;;;2.73;1.70;;;25.50;93.80;;;;;;5040270;28;20223;-94
2022/06/24 07:06:55;;;;;;;4.37;2.03;;;25.50;94.20;;;;;;5039386;28;20175;-95
2022/06/24 07:09:37;;;;;;;4.07;1.90;;;25.50;93.90;;;;;;5040245;28;20207;-94
2022/06/24 07:12:03;;;;;;;3.37;1.67;;;25.70;93.90;;;;;;5040936;28;20196;-95
2022/06/24 07:14:29;;;;;;;3.23;1.63;;;25.70;94.40;;;;;;5040733;28;20176;-94
2022/06/24 07:27:10;;;;;;;6.13;1.80;;;25.70;94.10;;;;;;4993441;28;20179;-94
2022/06/24 07:29:39;;;;;;;3.40;1.87;;;25.70;94.80;;;;;;5041336;28;20169;-95
2022/06/24 07:32:06;;;;;;;4.90;1.73;;;25.60;95.50;;;;;;5039880;28;20196;-95
2022/06/24 07:34:33;;;;;;;4.33;1.73;;;25.50;95.90;;;;;;5039184;28;20180;-94
2022/06/24 07:50:33;;;;;;;4.23;2.07;;;25.80;95.00;;;;;;5058549;28;20220;-95
2022/06/24 07:52:59;;;;;;;2.53;1.60;;;25.90;95.60;;;;;;5032145;28;20208;-94
2022/06/24 07:58:09;;;;;;;4.50;1.90;;;26.00;93.90;;;;;;5039680;28;20195;-94
2022/06/24 08:07:19;;;;;;;4.67;1.90;;;26.70;92.70;;;;;;5038882;28;20176;-94
2022/06/24 08:10:24;;;;;;;2.87;1.70;;;27.00;91.10;;;;;;5015346;28;20184;-94
2022/06/24 08:12:50;;;;;;;6.63;2.57;;;27.10;90.40;;;;;;5015626;28;20191;-93
2022/06/24 08:15:52;;;;;;;4.93;1.93;;;27.30;90.30;;;;;;5013465;28;20176;-93
2022/06/24 08:19:06;;;;;;;4.53;1.60;;;27.40;91.40;;;;;;5015429;28;20177;-94
2022/06/24 08:21:38;;;;;;;3.80;1.90;;;27.30;90.40;;;;;;5000368;28;20189;-94
2022/06/24 08:24:05;;;;;;;3.77;1.67;;;27.30;91.60;;;;;;5013439;28;20242;-94
2022/06/24 08:26:31;;;;;;;5.00;2.30;;;27.30;91.50;;;;;;5013886;28;20208;-94
2022/06/24 08:29:34;;;;;;;3.60;1.80;;;27.30;90.50;;;;;;5013909;28;20181;-94
2022/06/24 08:32:02;;;;;;;3.07;2.00;;;27.30;90.40;;;;;;5009313;28;20206;-94
2022/06/24 08:34:28;;;;;;;6.17;2.23;;;27.30;89.90;;;;;;5022053;28;20173;-94
2022/06/24 08:36:54;;;;;;;3.73;1.53;;;27.30;90.10;;;;;;5022532;28;20177;-95
2022/06/24 08:39:35;;;;;;;5.57;2.00;;;27.30;88.10;;;;;;5018606;28;20173;-94
2022/06/24 08:42:30;;;;;;;6.13;1.90;;;27.30;89.10;;;;;;5017035;28;20250;-94
2022/06/24 08:44:59;;;;;;;5.37;2.80;;;27.30;86.90;;;;;;5024102;28;20180;-94
2022/06/24 08:47:25;;;;;;;10.70;3.90;;;27.20;88.30;;;;;;5026715;28;20222;-94
2022/06/24 08:49:51;;;;;;;3.77;1.97;;;27.10;87.90;;;;;;5027257;28;20189;-94
2022/06/24 08:52:20;;;;;;;4.53;2.30;;;27.10;88.10;;;;;;5028931;28;20173;-94
2022/06/24 08:55:32;;;;;;;5.27;2.20;;;27.10;88.80;;;;;;5023088;28;20189;-95
2022/06/24 08:57:58;;;;;;;2.53;2.13;;;27.00;87.80;;;;;;5026781;28;20169;-95
2022/06/24 09:00:24;;;;;;;2.57;1.87;;;27.00;87.80;;;;;;5040139;28;20432;-94
2022/06/24 09:02:50;;;;;;;4.97;2.47;;;26.90;87.10;;;;;;5027698;28;20192;-94
2022/06/24 09:05:16;;;;;;;6.07;2.30;;;26.90;88.30;;;;;;5025512;28;20173;-94
2022/06/24 09:07:41;;;;;;;3.03;1.80;;;26.80;89.20;;;;;;5024560;28;20191;-94
2022/06/24 09:16:53;;;;;;;4.00;1.87;;;26.70;87.60;;;;;;5037947;28;20192;-94
2022/06/24 09:22:42;;;;;;;3.53;3.17;;;26.70;88.00;;;;;;5042599;28;20258;-94
2022/06/24 09:25:08;;;;;;;3.70;2.70;;;26.70;90.20;;;;;;5020994;28;20187;-93
2022/06/24 09:31:07;;;;;;;7.63;4.07;;;26.60;88.90;;;;;;5026250;28;20446;-93
2022/06/24 09:33:39;;;;;;;6.80;3.43;;;26.60;89.10;;;;;;5011939;28;20246;-92
2022/06/24 09:40:07;;;;;;;3.73;3.13;;;26.50;89.80;;;;;;5019597;28;20187;-92
2022/06/24 09:45:55;;;;;;;5.90;4.63;;;26.50;90.00;;;;;;5028521;28;20180;-92
2022/06/24 09:48:30;;;;;;;5.10;3.90;;;26.50;90.10;;;;;;5012436;28;20204;-92
2022/06/24 09:51:03;;;;;;;4.97;3.90;;;26.40;90.10;;;;;;5010613;28;20596;-93
2022/06/24 09:56:52;;;;;;;4.87;2.80;;;26.40;90.70;;;;;;5025252;28;20262;-93
2022/06/24 10:22:37;;;;;;;3.40;2.13;;;26.20;91.80;;;;;;5018409;28;20546;-92
2022/06/24 10:32:00;;;;;;;5.43;2.07;;;26.40;91.30;;;;;;5027873;28;20235;-93
2022/06/24 10:38:27;;;;;;;3.63;2.20;;;26.50;91.50;;;;;;5027660;28;20235;-93
2022/06/24 10:40:53;;;;;;;3.17;2.23;;;26.60;90.90;;;;;;5007261;28;20191;-92
2022/06/24 10:43:37;;;;;;;7.23;3.40;;;26.70;90.90;;;;;;5012226;28;20238;-93
2022/06/24 10:49:25;;;;;;;2.27;2.00;;;26.80;90.40;;;;;;5031295;28;20191;-94
2022/06/24 10:55:16;;;;;;;3.50;2.03;;;27.00;88.00;;;;;;5033629;28;20281;-93
2022/06/24 11:01:06;;;;;;;3.13;1.73;;;27.10;90.60;;;;;;5031614;28;20188;-94
2022/06/24 11:13:38;;;;;;;2.33;1.80;;;27.30;84.20;;;;;;5045772;28;20246;-94
2022/06/24 11:22:59;;;;;;;2.10;1.90;;;27.50;80.80;;;;;;5037237;28;20180;-94
2022/06/24 11:26:15;;;;;;;1.97;1.80;;;27.50;79.80;;;;;;5016260;28;20177;-94
2022/06/24 11:28:42;;;;;;;3.00;2.03;;;27.60;79.10;;;;;;5011198;28;20180;-94
2022/06/24 11:31:26;;;;;;;2.23;2.00;;;27.60;84.30;;;;;;5011354;28;20197;-94
2022/06/24 11:34:04;;;;;;;3.30;2.73;;;27.60;80.00;;;;;;5015095;28;20215;-93
2022/06/24 11:36:49;;;;;;;6.07;3.83;;;27.70;85.20;;;;;;5006843;28;20561;-94
2022/06/24 11:39:15;;;;;;;5.40;2.47;;;27.70;88.60;;;;;;5010550;28;20181;-93
2022/06/24 11:41:47;;;;;;;2.57;1.90;;;27.70;81.10;;;;;;5017929;28;20169;-94
2022/06/24 11:44:14;;;;;;;2.93;2.30;;;27.70;79.20;;;;;;5016493;28;20328;-95
2022/06/24 11:46:47;;;;;;;2.40;2.00;;;27.80;79.10;;;;;;5015029;28;20199;-93
2022/06/24 11:49:13;;;;;;;3.17;2.00;;;27.80;79.10;;;;;;5008820;28;20520;-94
2022/06/24 11:51:44;;;;;;;4.47;2.30;;;27.80;80.10;;;;;;5021287;28;20224;-94
2022/06/24 11:54:27;;;;;;;4.87;2.60;;;27.80;79.20;;;;;;5016726;28;20517;-94
2022/06/24 11:56:54;;;;;;;3.40;2.10;;;27.90;81.30;;;;;;5014609;28;20169;-94
2022/06/24 11:59:29;;;;;;;7.03;3.17;;;27.90;78.90;;;;;;5019095;28;20280;-93
2022/06/24 12:02:32;;;;;;;3.07;2.60;;;27.90;80.40;;;;;;5008927;28;20238;-94
2022/06/24 12:05:08;;;;;;;2.50;2.20;;;27.90;80.70;;;;;;5022153;28;20200;-93
2022/06/24 12:07:43;;;;;;;4.27;2.40;;;27.90;78.10;;;;;;5022025;28;20177;-94
2022/06/24 12:10:09;;;;;;;7.73;2.60;;;27.90;78.70;;;;;;5020518;28;20191;-94
2022/06/24 12:12:36;;;;;;;3.90;2.63;;;28.00;78.40;;;;;;5019693;28;20253;-94
2022/06/24 12:15:02;;;;;;;4.70;2.60;;;28.00;80.20;;;;;;5017179;28;20549;-94
2022/06/24 12:17:56;;;;;;;3.87;2.20;;;28.00;78.10;;;;;;5021491;28;20558;-94
2022/06/24 12:27:35;;;;;;;3.93;2.43;;;28.10;75.40;;;;;;5042380;28;20215;-95
2022/06/24 12:30:00;;;;;;;2.93;2.27;;;28.20;82.30;;;;;;5010495;28;20180;-94
2022/06/24 12:36:10;;;;;;;4.80;2.10;;;28.20;78.80;;;;;;5028761;28;20239;-95
2022/06/24 12:38:56;;;;;;;3.77;2.30;;;28.10;77.30;;;;;;5026920;28;20557;-95
2022/06/24 12:41:23;;;;;;;3.20;2.50;;;28.20;76.00;;;;;;4946005;29;20199;-94
2022/06/24 12:44:03;;;;;;;2.47;1.97;;;28.20;77.90;;;;;;4996869;28;20216;-95
2022/06/24 12:56:15;;;;;;;3.63;2.50;;;28.30;73.80;;;;;;5061442;28;20192;-93
2022/06/24 12:58:40;;;;;;;4.23;2.67;;;28.30;81.90;;;;;;5044439;28;20175;-93
2022/06/24 13:01:06;;;;;;;2.60;2.30;;;28.20;82.40;;;;;;5043555;28;20169;-93
2022/06/24 13:06:54;;;;;;;3.33;2.20;;;28.30;77.80;;;;;;5060811;28;20167;-94
2022/06/24 13:19:20;;;;;;;4.60;3.00;;;28.40;76.00;;;;;;4981466;28;20167;-93
2022/06/24 13:56:23;;;;;;;3.47;2.40;;;28.40;77.20;;;;;;5058042;28;20181;-95
2022/06/24 13:58:50;;;;;;;2.70;2.50;;;28.40;75.70;;;;;;5028671;28;20267;-94
2022/06/24 14:08:05;;;;;;;3.40;3.10;;;28.40;78.50;;;;;;5041534;28;20215;-95
2022/06/24 14:20:40;;;;;;;3.50;2.37;;;28.20;77.60;;;;;;5046103;28;20265;-95
2022/06/24 14:25:54;;;;;;;3.60;2.20;;;28.30;78.20;;;;;;5038267;28;20175;-94
2022/06/24 14:28:21;;;;;;;2.97;2.43;;;28.30;75.10;;;;;;5027639;28;20168;-94
2022/06/24 14:30:47;;;;;;;2.77;2.23;;;28.30;77.00;;;;;;5030607;28;20201;-95
2022/06/24 14:33:13;;;;;;;2.10;1.90;;;28.30;75.60;;;;;;5032256;28;20261;-95
2022/06/24 14:35:39;;;;;;;4.37;2.80;;;28.30;75.70;;;;;;5027545;28;20176;-94
2022/06/24 14:48:14;;;;;;;3.40;2.73;;;28.40;75.00;;;;;;5045273;28;20183;-94
2022/06/24 15:01:16;;;;;;;3.43;2.90;;;28.40;75.80;;;;;;5046979;28;20199;-95
2022/06/24 15:03:42;;;;;;;4.93;3.07;;;28.40;77.80;;;;;;5038716;28;20169;-95
2022/06/24 15:06:11;;;;;;;3.33;2.50;;;28.30;77.60;;;;;;5037639;28;20179;-94
2022/06/24 15:08:37;;;;;;;3.73;2.90;;;28.30;76.50;;;;;;5038019;28;20180;-95
2022/06/24 15:15:06;;;;;;;4.13;2.63;;;28.20;75.30;;;;;;5054921;28;20160;-94
2022/06/24 15:17:53;;;;;;;2.50;2.30;;;28.30;76.10;;;;;;5034118;28;20189;-94
2022/06/24 15:20:19;;;;;;;3.67;2.70;;;28.30;75.20;;;;;;5027253;28;20180;-94
2022/06/24 15:22:46;;;;;;;3.57;2.80;;;28.30;75.50;;;;;;5028990;28;20257;-94
2022/06/24 15:26:00;;;;;;;2.93;2.73;;;28.40;74.40;;;;;;5029806;28;20181;-94
2022/06/24 15:28:01;;;;;;;7.23;5.23;;;28.40;74.40;;;;;;5040216;28;20173;-95
2022/06/24 15:30:36;;;;;;;3.97;3.67;;;28.40;75.20;;;;;;5029719;28;20282;-94
2022/06/24 15:33:02;;;;;;;4.13;2.90;;;28.30;74.30;;;;;;5030549;28;20374;-95
2022/06/24 15:35:56;;;;;;;4.50;3.10;;;28.30;73.80;;;;;;5023389;28;20321;-94
2022/06/24 15:38:32;;;;;;;4.47;2.70;;;28.20;75.40;;;;;;5020038;28;20208;-94
2022/06/24 15:40:57;;;;;;;3.60;2.60;;;28.20;76.60;;;;;;5022716;28;20247;-95
2022/06/24 15:50:09;;;;;;;2.67;2.40;;;28.20;75.60;;;;;;5044067;28;20172;-95
2022/06/24 15:55:57;;;;;;;3.67;3.00;;;28.20;70.90;;;;;;5043667;28;20215;-95
2022/06/24 15:58:36;;;;;;;2.47;2.27;;;28.10;71.80;;;;;;5026846;28;20213;-95
2022/06/24 16:04:56;;;;;;;3.60;2.50;;;28.10;75.30;;;;;;5037372;28;20176;-94
2022/06/24 16:10:44;;;;;;;3.10;2.80;;;28.10;74.30;;;;;;5049848;28;20212;-94
2022/06/24 16:13:11;;;;;;;2.87;2.60;;;28.00;75.30;;;;;;5026899;28;20173;-94
2022/06/24 16:15:37;;;;;;;4.00;3.03;;;28.00;75.50;;;;;;5025164;28;20173;-95
2022/06/24 16:21:25;;;;;;;6.30;2.53;;;27.90;75.70;;;;;;5043944;28;20175;-94
2022/06/24 16:23:51;;;;;;;4.70;2.77;;;27.90;76.80;;;;;;5025161;28;20220;-95
2022/06/24 16:33:01;;;;;;;2.90;2.47;;;27.90;77.60;;;;;;5042257;28;20532;-94
2022/06/24 16:42:12;;;;;;;2.93;2.40;;;27.70;79.40;;;;;;5044156;28;20192;-94
2022/06/24 16:44:37;;;;;;;3.53;2.67;;;27.60;79.20;;;;;;5025680;28;20176;-94
2022/06/24 16:47:03;;;;;;;4.10;2.50;;;27.60;80.10;;;;;;5025240;28;20177;-94
2022/06/24 16:49:29;;;;;;;2.97;2.40;;;27.50;80.40;;;;;;5018127;28;20240;-94
2022/06/24 16:55:17;;;;;;;4.23;2.73;;;27.50;80.70;;;;;;5040996;28;20176;-93
2022/06/24 17:11:51;;;;;;;3.80;2.77;;;27.10;86.50;;;;;;5035889;28;20454;-94
2022/06/24 17:14:17;;;;;;;4.57;2.83;;;27.20;87.10;;;;;;5046686;28;20431;-94
2022/06/24 17:43:40;;;;;;;3.27;2.60;;;27.30;88.30;;;;;;5035631;28;20188;-92
2022/06/24 17:46:06;;;;;;;4.23;2.73;;;27.30;88.60;;;;;;5015077;28;20223;-94
2022/06/24 17:56:08;;;;;;;5.40;2.60;;;27.20;89.70;;;;;;5028756;28;20636;-93
2022/06/24 18:06:10;;;;;;;4.50;2.17;;;27.10;90.70;;;;;;5025733;28;20176;-93
2022/06/24 18:08:35;;;;;;;3.00;2.00;;;27.10;91.20;;;;;;5008428;28;20181;-92
2022/06/24 18:11:01;;;;;;;2.17;1.97;;;26.90;91.80;;;;;;5012415;28;20204;-93
2022/06/24 18:13:27;;;;;;;4.80;2.23;;;26.80;92.00;;;;;;4998964;28;20280;-93
2022/06/24 18:19:15;;;;;;;3.47;1.80;;;26.70;92.50;;;;;;5028910;28;20238;-93
2022/06/24 18:21:41;;;;;;;2.10;1.90;;;26.60;93.10;;;;;;5008890;28;20230;-93
2022/06/24 18:24:09;;;;;;;3.20;2.10;;;26.40;94.10;;;;;;5013082;28;20185;-93
2022/06/24 18:33:19;;;;;;;2.37;1.87;;;25.70;96.00;;;;;;5031550;28;20187;-93
2022/06/24 18:39:07;;;;;;;2.77;1.90;;;25.30;97.50;;;;;;5029727;28;20695;-93
2022/06/24 18:41:33;;;;;;;3.53;2.27;;;25.10;98.10;;;;;;5016174;28;20175;-93
2022/06/24 18:47:52;;;;;;;5.73;2.10;;;25.10;98.50;;;;;;5031509;28;20195;-93
2022/06/24 18:50:17;;;;;;;3.07;2.30;;;24.90;98.60;;;;;;5020463;28;20188;-93
2022/06/24 18:53:26;;;;;;;3.83;2.30;;;25.00;98.20;;;;;;5036210;28;20192;-94
2022/06/24 18:56:45;;;;;;;3.00;1.90;;;25.10;98.00;;;;;;5014431;28;20198;-93
2022/06/24 19:03:41;;;;;;;3.20;1.70;;;25.50;96.70;;;;;;5020227;28;20221;-92
2022/06/24 19:06:37;;;;;;;3.13;1.80;;;25.50;96.60;;;;;;5015507;28;20207;-92
2022/06/24 19:09:03;;;;;;;3.30;2.07;;;25.50;96.60;;;;;;5010521;28;20174;-93
2022/06/24 19:12:13;;;;;;;2.43;1.90;;;25.40;97.40;;;;;;5010108;28;20217;-93
2022/06/24 19:14:51;;;;;;;3.53;1.87;;;25.10;97.60;;;;;;5006086;28;20171;-92
2022/06/24 19:24:51;;;;;;;3.37;1.90;;;24.70;98.80;;;;;;5022161;28;20235;-93
2022/06/24 19:27:18;;;;;;;4.50;2.00;;;24.50;99.50;;;;;;5007491;28;20563;-93
2022/06/24 19:33:06;;;;;;;2.87;1.80;;;24.30;99.90;;;;;;5024497;28;20574;-92
2022/06/24 19:35:39;;;;;;;3.00;1.87;;;24.20;99.90;;;;;;5012926;28;20362;-93
2022/06/24 19:41:55;;;;;;;2.13;1.93;;;24.60;99.10;;;;;;5027923;28;20551;-93
2022/06/24 19:44:21;;;;;;;3.00;1.70;;;24.70;98.70;;;;;;5011656;28;20269;-93
2022/06/24 19:46:47;;;;;;;3.40;1.63;;;24.90;98.20;;;;;;5017970;28;20169;-93
2022/06/24 19:49:12;;;;;;;1.93;1.60;;;25.00;97.70;;;;;;5013715;28;20190;-93
2022/06/24 19:51:38;;;;;;;2.93;2.07;;;25.10;97.40;;;;;;5012992;28;20201;-93
2022/06/24 19:54:20;;;;;;;3.73;2.07;;;25.20;97.10;;;;;;5014570;28;20169;-92
2022/06/24 20:06:52;;;;;;;5.47;2.20;;;25.20;96.50;;;;;;5041060;28;20169;-94
2022/06/24 20:09:28;;;;;;;3.30;2.40;;;25.30;96.40;;;;;;5025669;28;20165;-94
2022/06/24 20:12:04;;;;;;;3.77;2.10;;;25.30;96.30;;;;;;5026420;28;20353;-93
2022/06/24 20:25:40;;;;;;;3.10;1.97;;;25.30;96.00;;;;;;4963274;29;20209;-94
2022/06/24 20:28:09;;;;;;;2.90;1.70;;;25.20;96.20;;;;;;4949029;29;20180;-95
2022/06/24 20:30:47;;;;;;;2.83;2.13;;;25.10;96.60;;;;;;4943812;29;20219;-94
2022/06/24 20:33:15;;;;;;;2.57;2.00;;;25.00;96.70;;;;;;4953957;29;20750;-94
2022/06/24 20:35:42;;;;;;;5.20;2.20;;;25.00;96.60;;;;;;4950473;29;20214;-92
2022/06/24 20:38:51;;;;;;;2.53;2.00;;;24.90;96.80;;;;;;4945608;29;20209;-93
2022/06/24 20:47:42;;;;;;;2.73;1.90;;;24.70;97.60;;;;;;4973667;28;20193;-94
2022/06/24 20:53:31;;;;;;;3.50;2.00;;;24.80;96.90;;;;;;5040193;28;20207;-93
2022/06/24 21:06:11;;;;;;;3.70;2.20;;;24.80;96.90;;;;;;4983153;28;20171;-93
2022/06/24 21:09:14;;;;;;;1.90;1.60;;;24.80;96.90;;;;;;4957137;28;20175;-93
2022/06/24 21:12:26;;;;;;;3.30;2.20;;;24.80;96.80;;;;;;5002362;28;20462;-93
2022/06/24 21:14:54;;;;;;;1.80;1.60;;;24.80;96.50;;;;;;5008100;28;20184;-93
2022/06/24 21:17:23;;;;;;;1.90;1.60;;;24.80;96.40;;;;;;5029966;28;20166;-93
2022/06/24 21:20:40;;;;;;;4.33;2.10;;;24.90;96.20;;;;;;4993886;28;20182;-92
2022/06/24 21:23:06;;;;;;;4.07;1.83;;;24.90;96.00;;;;;;5009025;28;20176;-93
2022/06/24 21:25:45;;;;;;;3.87;2.30;;;24.90;95.90;;;;;;5010324;28;20177;-92
2022/06/24 21:34:55;;;;;;;2.40;1.77;;;24.90;95.70;;;;;;5033819;28;20230;-92
2022/06/24 21:37:20;;;;;;;3.00;2.00;;;24.90;95.50;;;;;;5014468;28;20504;-93
2022/06/24 21:44:07;;;;;;;1.93;1.67;;;24.90;95.80;;;;;;5035442;28;20174;-94
2022/06/24 22:00:46;;;;;;;2.40;2.10;;;24.70;96.00;;;;;;5032838;28;20195;-93
2022/06/24 22:16:49;;;;;;;2.83;2.00;;;23.80;99.30;;;;;;4947982;29;20170;-93
2022/06/24 22:22:41;;;;;;;2.80;2.00;;;23.90;99.50;;;;;;4975662;28;20247;-92
2022/06/24 22:29:23;;;;;;;2.33;2.13;;;23.90;98.90;;;;;;4943844;29;20187;-93
2022/06/24 22:31:49;;;;;;;3.43;2.10;;;24.10;98.20;;;;;;4954419;28;20282;-93
2022/06/24 22:41:26;;;;;;;3.03;2.20;;;24.30;97.50;;;;;;5032610;28;20256;-92
2022/06/24 22:43:52;;;;;;;4.10;2.20;;;24.20;97.50;;;;;;5017947;28;20188;-93
2022/06/24 22:46:21;;;;;;;4.97;2.40;;;24.20;97.40;;;;;;5004588;28;20181;-93